^^
Datos históricos de la estación: Murcia-Puente Tocinos
Diario Informe para Enero 22, 2019 Unidades:  Ambas    Ingés   Métrico
Diario Semanal Mensual Anual
  Máxima: Mínima: Promedio:
Temperatura: 80.4 °F /  26.9 °C 57.6 °F /  14.2 °C 68.9 °F /  20.5 °C
Punto de rocio: 58.3 °F /  14.6 °C 43.7 °F /  6.5 °C 53.8 °F /  12.1 °C
Humedad: 87% 28% 63%
Velocidad viento: 12.5mph /  20.1km/h - 5.2mph /  8.3km/h
Racha viento: 23.5mph /  37.8km/h - -
Viento- - SSE
Presión: 30 in /  1017.0 hPa 30 in /  1014.9 hPa -
Precipitación: 0 in /  0.0 mm    
 
 
Tabla de datos para Enero 22, 2019
Hora Temperatura Punto de rocio Presión Viento Velocidad viento Racha viento Humedad Intensidad lluvia(por hora) Nubes
00:04 63 °F /  17.2 °C 58.1 °F /  14.5 °C 30in /  1015.8hPa NO 2mph /  3.2km/h 5mph /  8km/h 84% 0in /  0.0mm
00:09 63 °F /  17.2 °C 58.3 °F /  14.6 °C 30in /  1015.8hPa ONO 1.8mph /  2.9km/h 4.6mph /  7.4km/h 84.9% 0in /  0.0mm
00:14 62.8 °F /  17.1 °C 58.1 °F /  14.5 °C 30in /  1015.8hPa ONO 1.4mph /  2.2km/h 5.8mph /  9.3km/h 85% 0in /  0.0mm
00:19 62.4 °F /  16.9 °C 57.9 °F /  14.4 °C 30in /  1015.9hPa NO 1.9mph /  3.1km/h 6mph /  9.7km/h 85% 0in /  0.0mm
00:24 62.4 °F /  16.9 °C 57.7 °F /  14.3 °C 30in /  1015.9hPa NO 2.9mph /  4.7km/h 5mph /  8km/h 85% 0in /  0.0mm
00:29 62.2 °F /  16.8 °C 57.7 °F /  14.3 °C 30in /  1015.9hPa NO 2.5mph /  4km/h 4mph /  6.4km/h 85% 0in /  0.0mm
00:34 62.2 °F /  16.8 °C 57.7 °F /  14.3 °C 30in /  1015.9hPa NO 1.8mph /  2.9km/h 4mph /  6.4km/h 85% 0in /  0.0mm
00:39 62.2 °F /  16.8 °C 57.7 °F /  14.3 °C 30in /  1015.9hPa NO 1.1mph /  1.8km/h 4mph /  6.4km/h 84.9% 0in /  0.0mm
00:44 62.2 °F /  16.8 °C 57.6 °F /  14.2 °C 30in /  1015.9hPa Calm   4mph /  6.4km/h 84.7% 0in /  0.0mm
00:49 62.4 °F /  16.9 °C 57.7 °F /  14.3 °C 30in /  1015.9hPa SE 0.7mph /  1.2km/h 5.9mph /  9.5km/h 84.9% 0in /  0.0mm
00:54 62.2 °F /  16.8 °C 57.9 °F /  14.4 °C 30in /  1015.9hPa SE 2mph /  3.2km/h 6.4mph /  10.3km/h 85.6% 0in /  0.0mm
00:59 62.1 °F /  16.7 °C 57.9 °F /  14.4 °C 30in /  1015.9hPa SSE 3mph /  4.9km/h 9.2mph /  14.8km/h 86% 0in /  0.0mm
01:04 61.9 °F /  16.6 °C 57.6 °F /  14.2 °C 30in /  1015.9hPa SSE 4.7mph /  7.6km/h 9mph /  14.5km/h 86% 0in /  0.0mm
01:09 61.9 °F /  16.6 °C 57.6 °F /  14.2 °C 30in /  1015.8hPa SSE 4.7mph /  7.6km/h 7mph /  11.3km/h 86% 0in /  0.0mm
01:14 61.7 °F /  16.5 °C 57.6 °F /  14.2 °C 30in /  1015.8hPa Sur 4.7mph /  7.6km/h 6.9mph /  11.1km/h 86% 0in /  0.0mm
01:19 61.9 °F /  16.6 °C 57.4 °F /  14.1 °C 30in /  1015.8hPa SSO 4.4mph /  7.1km/h 7mph /  11.3km/h 85.5% 0in /  0.0mm
01:24 61.9 °F /  16.6 °C 57.4 °F /  14.1 °C 30in /  1015.8hPa SSO 4mph /  6.5km/h 6mph /  9.7km/h 85% 0in /  0.0mm
01:29 62.1 °F /  16.7 °C 57.4 °F /  14.1 °C 30in /  1015.8hPa SO 3.7mph /  5.9km/h 6mph /  9.7km/h 85% 0in /  0.0mm
01:34 62.1 °F /  16.7 °C 57.2 °F /  14 °C 30in /  1015.8hPa SO 3.1mph /  5km/h 6.2mph /  10km/h 84.1% 0in /  0.0mm
01:39 62.1 °F /  16.7 °C 57.2 °F /  14 °C 30in /  1015.7hPa OSO 3mph /  4.9km/h 6mph /  9.7km/h 84% 0in /  0.0mm
01:44 62.1 °F /  16.7 °C 57 °F /  13.9 °C 30in /  1015.7hPa OSO 2.9mph /  4.7km/h 6mph /  9.7km/h 83.4% 0in /  0.0mm
01:49 62.1 °F /  16.7 °C 56.8 °F /  13.8 °C 30in /  1015.7hPa OSO 2.5mph /  4km/h 6mph /  9.7km/h 83% 0in /  0.0mm
01:54 62.1 °F /  16.7 °C 56.8 °F /  13.8 °C 30in /  1015.6hPa OSO 1.8mph /  2.9km/h 4.3mph /  6.9km/h 83% 0in /  0.0mm
01:59 62.1 °F /  16.7 °C 56.8 °F /  13.8 °C 30in /  1015.6hPa OSO 1.8mph /  2.9km/h 5mph /  8km/h 83% 0in /  0.0mm
02:04 62.1 °F /  16.7 °C 56.8 °F /  13.8 °C 30in /  1015.8hPa OSO 1.8mph /  2.9km/h 5mph /  8km/h 83% 0in /  0.0mm
02:09 62.1 °F /  16.7 °C 56.8 °F /  13.8 °C 30in /  1015.8hPa SSO 1.7mph /  2.7km/h 5.9mph /  9.5km/h 83% 0in /  0.0mm
02:14 61.9 °F /  16.6 °C 56.7 °F /  13.7 °C 30in /  1015.8hPa Sur 1.4mph /  2.2km/h 6mph /  9.7km/h 83% 0in /  0.0mm
02:19 61.9 °F /  16.6 °C 56.7 °F /  13.7 °C 30in /  1015.9hPa Sur 2.2mph /  3.6km/h 6mph /  9.7km/h 83% 0in /  0.0mm
02:24 61.7 °F /  16.5 °C 56.5 °F /  13.6 °C 30in /  1015.9hPa Sur 3.6mph /  5.8km/h 5mph /  8km/h 83% 0in /  0.0mm
02:29 61.5 °F /  16.4 °C 56.3 °F /  13.5 °C 30in /  1015.9hPa Sur 3.1mph /  5km/h 5mph /  8km/h 83% 0in /  0.0mm
02:34 61.5 °F /  16.4 °C 56.3 °F /  13.5 °C 30in /  1015.9hPa Sur 2.4mph /  3.9km/h 5.2mph /  8.4km/h 83% 0in /  0.0mm
02:39 61.5 °F /  16.4 °C 56.3 °F /  13.5 °C 30in /  1015.7hPa Sur 2.6mph /  4.2km/h 6.9mph /  11.1km/h 83% 0in /  0.0mm
02:44 61.5 °F /  16.4 °C 56.3 °F /  13.5 °C 30in /  1015.7hPa Sur 2.9mph /  4.7km/h 7mph /  11.3km/h 83% 0in /  0.0mm
02:49 61.3 °F /  16.3 °C 55.9 °F /  13.3 °C 30in /  1015.8hPa Sur 2.9mph /  4.7km/h 5mph /  8km/h 82.6% 0in /  0.0mm
02:54 61.3 °F /  16.3 °C 55.9 °F /  13.3 °C 30in /  1015.8hPa Sur 2.9mph /  4.7km/h 5.4mph /  8.7km/h 82.5% 0in /  0.0mm
02:59 61.3 °F /  16.3 °C 55.8 °F /  13.2 °C 30in /  1015.8hPa Sur 3mph /  4.8km/h 6mph /  9.7km/h 82% 0in /  0.0mm
03:04 61.3 °F /  16.3 °C 55.8 °F /  13.2 °C 30in /  1015.8hPa Sur 3.1mph /  5km/h 6mph /  9.7km/h 82% 0in /  0.0mm
03:09 61.3 °F /  16.3 °C 55.9 °F /  13.3 °C 30in /  1015.6hPa Sur 3.1mph /  5km/h 5mph /  8km/h 82.6% 0in /  0.0mm
03:14 61.3 °F /  16.3 °C 56.1 °F /  13.4 °C 30in /  1015.6hPa SSE 3.1mph /  5km/h 5mph /  8km/h 83% 0in /  0.0mm
03:19 61.3 °F /  16.3 °C 56.5 °F /  13.6 °C 30in /  1015.6hPa SSE 2.8mph /  4.5km/h 5mph /  8km/h 83.8% 0in /  0.0mm
03:24 61.2 °F /  16.2 °C 56.3 °F /  13.5 °C 30in /  1015.5hPa Sur 2.4mph /  3.9km/h 5mph /  8km/h 84% 0in /  0.0mm
03:29 61.2 °F /  16.2 °C 56.3 °F /  13.5 °C 30in /  1015.5hPa Sur 2.2mph /  3.6km/h 5mph /  8km/h 84% 0in /  0.0mm
03:34 61.2 °F /  16.2 °C 56.3 °F /  13.5 °C 30in /  1015.5hPa Sur 2mph /  3.2km/h 3.6mph /  5.8km/h 84% 0in /  0.0mm
03:39 61.2 °F /  16.2 °C 56.3 °F /  13.5 °C 30in /  1015.3hPa Sur 1.8mph /  2.9km/h 4mph /  6.4km/h 84% 0in /  0.0mm
03:44 61 °F /  16.1 °C 56.3 °F /  13.5 °C 30in /  1015.3hPa Sur 1.4mph /  2.2km/h 3mph /  4.8km/h 84.4% 0in /  0.0mm
03:49 60.8 °F /  16 °C 56.1 °F /  13.4 °C 30in /  1015.6hPa NO 1.4mph /  2.2km/h 4.6mph /  7.4km/h 85% 0in /  0.0mm
03:54 60.4 °F /  15.8 °C 55.8 °F /  13.2 °C 30in /  1015.6hPa NNO 1.4mph /  2.2km/h 5mph /  8km/h 85% 0in /  0.0mm
03:59 60.3 °F /  15.7 °C 55.6 °F /  13.1 °C 30in /  1015.6hPa NNO 1.4mph /  2.2km/h 3mph /  4.8km/h 85.1% 0in /  0.0mm
04:04 59.9 °F /  15.5 °C 55.8 °F /  13.2 °C 30in /  1015.6hPa NNO 1.4mph /  2.2km/h   86% 0in /  0.0mm
04:09 59.7 °F /  15.4 °C 55.6 °F /  13.1 °C 30in /  1015.5hPa NNO 0.9mph /  1.4km/h   86.4% 0in /  0.0mm
04:14 59.7 °F /  15.4 °C 55.8 °F /  13.2 °C 30in /  1015.5hPa Calm     87% 0in /  0.0mm
04:19 59.5 °F /  15.3 °C 55.8 °F /  13.2 °C 30in /  1015.6hPa Calm   2.9mph /  4.7km/h 87% 0in /  0.0mm
04:24 59.5 °F /  15.3 °C 55.8 °F /  13.2 °C 30in /  1015.6hPa Calm   3.6mph /  5.8km/h 87% 0in /  0.0mm
04:29 59.5 °F /  15.3 °C 55.8 °F /  13.2 °C 30in /  1015.6hPa NNO 0.7mph /  1.2km/h 4.6mph /  7.4km/h 87% 0in /  0.0mm
04:34 59.5 °F /  15.3 °C 55.8 °F /  13.2 °C 30in /  1015.6hPa NNO 2mph /  3.2km/h 5mph /  8km/h 87% 0in /  0.0mm
04:39 59.5 °F /  15.3 °C 55.6 °F /  13.1 °C 30in /  1015.6hPa NNO 2mph /  3.2km/h 4.6mph /  7.4km/h 86.9% 0in /  0.0mm
04:44 59.5 °F /  15.3 °C 55.2 °F /  12.9 °C 30in /  1015.6hPa Sur 2mph /  3.2km/h 5mph /  8km/h 86% 0in /  0.0mm
04:49 59.5 °F /  15.3 °C 55.2 °F /  12.9 °C 30in /  1015.6hPa Sur 1.9mph /  3.1km/h 3.5mph /  5.6km/h 86% 0in /  0.0mm
04:54 59.5 °F /  15.3 °C 55.2 °F /  12.9 °C 30in /  1015.6hPa Sur 1.8mph /  2.9km/h 4.6mph /  7.4km/h 85.8% 0in /  0.0mm
04:59 59.5 °F /  15.3 °C 55 °F /  12.8 °C 30in /  1015.6hPa Sur 1.9mph /  3km/h 5mph /  8km/h 85% 0in /  0.0mm
05:04 59.5 °F /  15.3 °C 54.9 °F /  12.7 °C 30in /  1015.6hPa SSO 2mph /  3.2km/h 5.8mph /  9.3km/h 85% 0in /  0.0mm
05:09 59.4 °F /  15.2 °C 54.5 °F /  12.5 °C 30in /  1015.6hPa SSO 2.4mph /  3.9km/h 6mph /  9.7km/h 84.3% 0in /  0.0mm
05:14 59.4 °F /  15.2 °C 54.5 °F /  12.5 °C 30in /  1015.6hPa SSO 3.1mph /  5km/h 6mph /  9.7km/h 84% 0in /  0.0mm
05:19 59.4 °F /  15.2 °C 54.3 °F /  12.4 °C 30in /  1015.7hPa SSO 3.1mph /  5km/h 6mph /  9.7km/h 84% 0in /  0.0mm
05:24 59.4 °F /  15.2 °C 54.5 °F /  12.5 °C 30in /  1015.7hPa SSO 3.1mph /  5km/h 5mph /  8km/h 84% 0in /  0.0mm
05:29 59.4 °F /  15.2 °C 54.5 °F /  12.5 °C 30in /  1015.7hPa SSO 2.7mph /  4.3km/h 5mph /  8km/h 84% 0in /  0.0mm
05:34 59.4 °F /  15.2 °C 54.5 °F /  12.5 °C 30in /  1015.7hPa SSO 2mph /  3.2km/h 4mph /  6.4km/h 84% 0in /  0.0mm
05:39 59.4 °F /  15.2 °C 54.5 °F /  12.5 °C 30in /  1015.6hPa SSO 1.9mph /  3.1km/h 4mph /  6.4km/h 84% 0in /  0.0mm
05:44 59.4 °F /  15.2 °C 54.5 °F /  12.5 °C 30in /  1015.6hPa SSO 1.8mph /  2.9km/h 4mph /  6.4km/h 84% 0in /  0.0mm
05:49 59.2 °F /  15.1 °C 54.3 °F /  12.4 °C 30in /  1015.7hPa SSO 2.1mph /  3.3km/h 5.8mph /  9.3km/h 84% 0in /  0.0mm
05:54 59 °F /  15 °C 54.3 °F /  12.4 °C 30in /  1015.7hPa SSO 2.4mph /  3.9km/h 6mph /  9.7km/h 84% 0in /  0.0mm
05:59 58.8 °F /  14.9 °C 54.1 °F /  12.3 °C 30in /  1015.7hPa SSE 2.7mph /  4.3km/h 5.8mph /  9.3km/h 84% 0in /  0.0mm
06:04 58.8 °F /  14.9 °C 54.1 °F /  12.3 °C 30in /  1015.7hPa SSE 3.1mph /  5km/h 6mph /  9.7km/h 84.4% 0in /  0.0mm
06:09 58.8 °F /  14.9 °C 54.3 °F /  12.4 °C 30in /  1015.7hPa SSE 2.7mph /  4.4km/h 5mph /  8km/h 84.9% 0in /  0.0mm
06:14 58.6 °F /  14.8 °C 54.1 °F /  12.3 °C 30in /  1015.7hPa SSE 2mph /  3.2km/h 2.3mph /  3.7km/h 84.8% 0in /  0.0mm
06:19 58.6 °F /  14.8 °C 54.1 °F /  12.3 °C 30in /  1015.8hPa SSE 1.2mph /  2km/h 2mph /  3.2km/h 85% 0in /  0.0mm
06:24 58.6 °F /  14.8 °C 54.1 °F /  12.3 °C 30in /  1015.8hPa Calm   5.2mph /  8.4km/h 85% 0in /  0.0mm
06:29 58.6 °F /  14.8 °C 54.1 °F /  12.3 °C 30in /  1015.8hPa Sur 1.1mph /  1.7km/h 5.4mph /  8.7km/h 85% 0in /  0.0mm
06:34 58.5 °F /  14.7 °C 54 °F /  12.2 °C 30in /  1015.9hPa SSE 2.9mph /  4.7km/h 6mph /  9.7km/h 85% 0in /  0.0mm
06:39 58.5 °F /  14.7 °C 54 °F /  12.2 °C 30in /  1015.9hPa SSE 3.3mph /  5.3km/h 6.9mph /  11.1km/h 85% 0in /  0.0mm
06:44 58.3 °F /  14.6 °C 53.8 °F /  12.1 °C 30in /  1015.9hPa SSE 4mph /  6.5km/h 7mph /  11.3km/h 85% 0in /  0.0mm
06:49 57.9 °F /  14.4 °C 53.4 °F /  11.9 °C 30in /  1015.9hPa SSE 4mph /  6.5km/h 6.9mph /  11.1km/h 85% 0in /  0.0mm
06:54 57.7 °F /  14.3 °C 53.4 °F /  11.9 °C 30in /  1015.9hPa SSE 4mph /  6.5km/h 7mph /  11.3km/h 85% 0in /  0.0mm
06:59 57.7 °F /  14.3 °C 53.6 °F /  12 °C 30in /  1015.9hPa SSE 4mph /  6.5km/h 7mph /  11.3km/h 86% 0in /  0.0mm
07:04 57.6 °F /  14.2 °C 53.4 °F /  11.9 °C 30in /  1016.0hPa SSE 4mph /  6.5km/h 7mph /  11.3km/h 86% 0in /  0.0mm
07:09 57.6 °F /  14.2 °C 53.4 °F /  11.9 °C 30in /  1016.0hPa SSE 4.1mph /  6.6km/h 6.2mph /  10km/h 86% 0in /  0.0mm
07:14 57.6 °F /  14.2 °C 53.4 °F /  11.9 °C 30in /  1016.0hPa SSE 4.3mph /  6.9km/h 6mph /  9.7km/h 86% 0in /  0.0mm
07:19 57.6 °F /  14.2 °C 53.4 °F /  11.9 °C 30in /  1016.0hPa Sur 4mph /  6.5km/h 5.8mph /  9.3km/h 86% 0in /  0.0mm
07:24 57.7 °F /  14.3 °C 53.6 °F /  12 °C 30in /  1016.0hPa Sur 3.6mph /  5.8km/h 6mph /  9.7km/h 86% 0in /  0.0mm
07:29 57.9 °F /  14.4 °C 53.8 °F /  12.1 °C 30in /  1016.0hPa Sur 3.4mph /  5.5km/h 5mph /  8km/h 86% 0in /  0.0mm
07:34 57.9 °F /  14.4 °C 53.8 °F /  12.1 °C 30in /  1016.2hPa SSE 3.1mph /  5km/h 5mph /  8km/h 86% 0in /  0.0mm
07:39 58.3 °F /  14.6 °C 54.1 °F /  12.3 °C 30in /  1016.2hPa SSE 2.9mph /  4.6km/h 5mph /  8km/h 86% 0in /  0.0mm
07:44 58.6 °F /  14.8 °C 54.1 °F /  12.3 °C 30in /  1016.2hPa SSE 2.4mph /  3.9km/h 3mph /  4.8km/h 85.5% 0in /  0.0mm
07:49 59 °F /  15 °C 54.3 °F /  12.4 °C 30in /  1016.3hPa SSE 2mph /  3.2km/h 3.5mph /  5.6km/h 84.8% 0in /  0.0mm
07:54 59.4 °F /  15.2 °C 54.5 °F /  12.5 °C 30in /  1016.3hPa SSE 1.4mph /  2.2km/h 3.6mph /  5.8km/h 84% 0in /  0.0mm
07:59 59.5 °F /  15.3 °C 54.3 °F /  12.4 °C 30in /  1016.3hPa SSE 1.6mph /  2.6km/h 5.9mph /  9.5km/h 82.7% 0in /  0.0mm
08:04 59.5 °F /  15.3 °C 54.3 °F /  12.4 °C 30in /  1016.3hPa SSE 2mph /  3.2km/h 6mph /  9.7km/h 82.7% 0in /  0.0mm
08:09 59.7 °F /  15.4 °C 54.5 °F /  12.5 °C 30in /  1016.3hPa SSE 2.6mph /  4.2km/h 6mph /  9.7km/h 83% 0in /  0.0mm
08:14 59.9 °F /  15.5 °C 54.7 °F /  12.6 °C 30in /  1016.3hPa SSE 3.6mph /  5.8km/h 6.2mph /  10km/h 83% 0in /  0.0mm
08:19 60.3 °F /  15.7 °C 55 °F /  12.8 °C 30in /  1016.5hPa SSE 3.4mph /  5.5km/h 6mph /  9.7km/h 83% 0in /  0.0mm
08:24 60.4 °F /  15.8 °C 55.2 °F /  12.9 °C 30in /  1016.5hPa SSE 3.1mph /  5km/h 5mph /  8km/h 82.9% 0in /  0.0mm
08:29 60.6 °F /  15.9 °C 55.2 °F /  12.9 °C 30in /  1016.5hPa Sur 2.8mph /  4.5km/h 5mph /  8km/h 82% 0in /  0.0mm
08:34 61.2 °F /  16.2 °C 55.4 °F /  13 °C 30in /  1016.5hPa SSO 2.4mph /  3.9km/h 5mph /  8km/h 81.5% 0in /  0.0mm
08:39 61.3 °F /  16.3 °C 55.2 °F /  12.9 °C 30in /  1016.5hPa SO 2.4mph /  3.9km/h 5.2mph /  8.4km/h 80.5% 0in /  0.0mm
08:44 61.5 °F /  16.4 °C 55.2 °F /  12.9 °C 30in /  1016.5hPa SO 2.4mph /  3.9km/h 5mph /  8km/h 80% 0in /  0.0mm
08:49 61.9 °F /  16.6 °C 55.6 °F /  13.1 °C 30in /  1016.5hPa SO 2.2mph /  3.6km/h 5.8mph /  9.3km/h 79.8% 0in /  0.0mm
08:54 62.1 °F /  16.7 °C 55.6 °F /  13.1 °C 30in /  1016.5hPa OSO 2mph /  3.2km/h 6mph /  9.7km/h 79% 0in /  0.0mm
08:59 62.1 °F /  16.7 °C 55.6 °F /  13.1 °C 30in /  1016.5hPa OSO 2.5mph /  4km/h 6mph /  9.7km/h 79% 0in /  0.0mm
09:04 62.4 °F /  16.9 °C 55.8 °F /  13.2 °C 30in /  1016.7hPa OSO 3.1mph /  5km/h 5.2mph /  8.4km/h 79% 0in /  0.0mm
09:09 62.4 °F /  16.9 °C 55.8 °F /  13.2 °C 30in /  1016.7hPa OSO 3.1mph /  5km/h 5.2mph /  8.4km/h 78.7% 0in /  0.0mm
09:14 62.6 °F /  17 °C 56.1 °F /  13.4 °C 30in /  1016.7hPa SO 3.1mph /  5km/h 5mph /  8km/h 79% 0in /  0.0mm
09:19 63 °F /  17.2 °C 56.3 °F /  13.5 °C 30in /  1016.7hPa OSO 2.7mph /  4.3km/h 5mph /  8km/h 78.5% 0in /  0.0mm
09:24 63.5 °F /  17.5 °C 56.5 °F /  13.6 °C 30in /  1016.7hPa SO 2mph /  3.2km/h 5mph /  8km/h 78% 0in /  0.0mm
09:29 63.9 °F /  17.7 °C 56.5 °F /  13.6 °C 30in /  1016.7hPa SSO 2mph /  3.2km/h 5mph /  8km/h 77% 0in /  0.0mm
09:34 64.4 °F /  18 °C 56.7 °F /  13.7 °C 30in /  1016.9hPa SSO 2mph /  3.2km/h 5mph /  8km/h 75.9% 0in /  0.0mm
09:39 64.6 °F /  18.1 °C 56.5 °F /  13.6 °C 30in /  1016.9hPa SO 2.2mph /  3.5km/h 7.4mph /  11.9km/h 75% 0in /  0.0mm
09:44 64.8 °F /  18.2 °C 56.7 °F /  13.7 °C 30in /  1016.9hPa SSO 2.4mph /  3.9km/h 7mph /  11.3km/h 75% 0in /  0.0mm
09:49 64.9 °F /  18.3 °C 56.5 °F /  13.6 °C 30in /  1017.0hPa SO 2.6mph /  4.2km/h 7mph /  11.3km/h 74.1% 0in /  0.0mm
09:54 65.1 °F /  18.4 °C 56.8 °F /  13.8 °C 30in /  1017.0hPa ONO 2.9mph /  4.7km/h 6mph /  9.7km/h 74.8% 0in /  0.0mm
09:59 65.3 °F /  18.5 °C 56.7 °F /  13.7 °C 30in /  1017.0hPa ONO 3mph /  4.8km/h 6.2mph /  10km/h 73.9% 0in /  0.0mm
10:04 65.7 °F /  18.7 °C 56.8 °F /  13.8 °C 30in /  1017.0hPa ONO 3.1mph /  5km/h 6.9mph /  11.1km/h 73.6% 0in /  0.0mm
10:09 65.7 °F /  18.7 °C 56.8 °F /  13.8 °C 30in /  1017.0hPa Oeste 3.3mph /  5.3km/h 7mph /  11.3km/h 73.1% 0in /  0.0mm
10:14 65.8 °F /  18.8 °C 57 °F /  13.9 °C 30in /  1017.0hPa Oeste 3.6mph /  5.8km/h 6mph /  9.7km/h 73% 0in /  0.0mm
10:19 66.4 °F /  19.1 °C 57 °F /  13.9 °C 30in /  1017.0hPa SO 3.2mph /  5.1km/h 5.2mph /  8.4km/h 72.1% 0in /  0.0mm
10:24 66.7 °F /  19.3 °C 57 °F /  13.9 °C 30in /  1016.9hPa OSO 2.4mph /  3.9km/h 6.2mph /  10km/h 70.8% 0in /  0.0mm
10:29 67.1 °F /  19.5 °C 56.8 °F /  13.8 °C 30in /  1016.9hPa Oeste 2.2mph /  3.6km/h 6mph /  9.7km/h 69.7% 0in /  0.0mm
10:34 67.5 °F /  19.7 °C 56.5 °F /  13.6 °C 30in /  1016.9hPa ONO 2mph /  3.2km/h 6mph /  9.7km/h 68.1% 0in /  0.0mm
10:39 68 °F /  20 °C 56.8 °F /  13.8 °C 30in /  1016.9hPa NNO 2mph /  3.2km/h 5.8mph /  9.3km/h 67.4% 0in /  0.0mm
10:44 68.7 °F /  20.4 °C 56.3 °F /  13.5 °C 30in /  1016.9hPa NNE 2mph /  3.2km/h 6mph /  9.7km/h 64.6% 0in /  0.0mm
10:49 69.3 °F /  20.7 °C 56.3 °F /  13.5 °C 30in /  1016.9hPa North 1.9mph /  3.1km/h 5mph /  8km/h 63.4% 0in /  0.0mm
10:54 69.6 °F /  20.9 °C 56.1 °F /  13.4 °C 30in /  1016.7hPa NNE 1.8mph /  2.9km/h 5mph /  8km/h 62.2% 0in /  0.0mm
10:59 70.2 °F /  21.2 °C 54.3 °F /  12.4 °C 30in /  1016.7hPa NE 2.1mph /  3.3km/h 5.8mph /  9.3km/h 57.4% 0in /  0.0mm
11:04 70.3 °F /  21.3 °C 54.1 °F /  12.3 °C 30in /  1016.7hPa NNE 2.4mph /  3.9km/h 6mph /  9.7km/h 56.4% 0in /  0.0mm
11:09 70.5 °F /  21.4 °C 53.6 °F /  12 °C 30in /  1016.7hPa NE 2.4mph /  3.9km/h 5.8mph /  9.3km/h 55% 0in /  0.0mm
11:14 70.9 °F /  21.6 °C 52.3 °F /  11.3 °C 30in /  1016.7hPa NE 2.4mph /  3.9km/h 6mph /  9.7km/h 51.8% 0in /  0.0mm
11:19 71.1 °F /  21.7 °C 54 °F /  12.2 °C 30in /  1016.8hPa ENE 2.4mph /  3.9km/h 6.4mph /  10.3km/h 54.5% 0in /  0.0mm
11:24 71.4 °F /  21.9 °C 53.6 °F /  12 °C 30in /  1016.8hPa NE 2.4mph /  3.9km/h 7mph /  11.3km/h 53.6% 0in /  0.0mm
11:29 71.4 °F /  21.9 °C 52.5 °F /  11.4 °C 30in /  1016.8hPa North 2.9mph /  4.6km/h 6.9mph /  11.1km/h 51.2% 0in /  0.0mm
11:34 71.4 °F /  21.9 °C 52 °F /  11.1 °C 30in /  1016.8hPa NNE 3.6mph /  5.8km/h 8.1mph /  13km/h 50.3% 0in /  0.0mm
11:39 71.8 °F /  22.1 °C 52.2 °F /  11.2 °C 30in /  1016.8hPa NE 3.6mph /  5.8km/h 8mph /  12.9km/h 50.1% 0in /  0.0mm
11:44 72.1 °F /  22.3 °C 52.3 °F /  11.3 °C 30in /  1016.8hPa ENE 3.6mph /  5.8km/h 8.5mph /  13.7km/h 49.6% 0in /  0.0mm
11:49 72.7 °F /  22.6 °C 52.9 °F /  11.6 °C 30in /  1016.8hPa NNO 3.4mph /  5.5km/h 9mph /  14.5km/h 49.9% 0in /  0.0mm
11:54 72.7 °F /  22.6 °C 52.7 °F /  11.5 °C 30in /  1016.8hPa NE 3.1mph /  5km/h 10mph /  16.1km/h 49.6% 0in /  0.0mm
11:59 72.7 °F /  22.6 °C 52.3 °F /  11.3 °C 30in /  1016.8hPa NNE 3.7mph /  6km/h 10mph /  16.1km/h 49% 0in /  0.0mm
12:04 72.9 °F /  22.7 °C 52.7 °F /  11.5 °C 30in /  1016.8hPa NNE 4.7mph /  7.6km/h 9mph /  14.5km/h 49.1% 0in /  0.0mm
12:09 72.9 °F /  22.7 °C 53.1 °F /  11.7 °C 30in /  1016.8hPa NNE 4.7mph /  7.6km/h 9mph /  14.5km/h 49.6% 0in /  0.0mm
12:14 73.2 °F /  22.9 °C 52.9 °F /  11.6 °C 30in /  1016.8hPa NNO 4.7mph /  7.6km/h 7.4mph /  11.9km/h 49.2% 0in /  0.0mm
12:19 73.2 °F /  22.9 °C 52.9 °F /  11.6 °C 30in /  1016.8hPa NE 4.4mph /  7.1km/h 9.2mph /  14.8km/h 48.8% 0in /  0.0mm
12:24 73.6 °F /  23.1 °C 52.9 °F /  11.6 °C 30in /  1016.8hPa NE 4mph /  6.5km/h 10.7mph /  17.2km/h 48.5% 0in /  0.0mm
12:29 73.8 °F /  23.2 °C 52.5 °F /  11.4 °C 30in /  1016.8hPa NNE 4.3mph /  6.9km/h 11mph /  17.7km/h 47.5% 0in /  0.0mm
12:34 73.9 °F /  23.3 °C 52.2 °F /  11.2 °C 30in /  1016.8hPa NNE 4.7mph /  7.6km/h 10.7mph /  17.2km/h 46.6% 0in /  0.0mm
12:39 73.9 °F /  23.3 °C 51.8 °F /  11 °C 30in /  1016.7hPa NNO 4.7mph /  7.6km/h 11mph /  17.7km/h 45.9% 0in /  0.0mm
12:44 74.3 °F /  23.5 °C 51.4 °F /  10.8 °C 30in /  1016.7hPa NNO 4.7mph /  7.6km/h 8.1mph /  13km/h 44.8% 0in /  0.0mm
12:49 74.7 °F /  23.7 °C 51.6 °F /  10.9 °C 30in /  1016.7hPa North 4.5mph /  7.3km/h 8.5mph /  13.7km/h 44.4% 0in /  0.0mm
12:54 74.8 °F /  23.8 °C 51.4 °F /  10.8 °C 30in /  1016.5hPa NNO 4.3mph /  6.9km/h 9mph /  14.5km/h 43.9% 0in /  0.0mm
12:59 75.4 °F /  24.1 °C 51.1 °F /  10.6 °C 30in /  1016.5hPa NNE 4.2mph /  6.7km/h 8.1mph /  13km/h 42.7% 0in /  0.0mm
13:04 75.9 °F /  24.4 °C 49.5 °F /  9.7 °C 30in /  1016.5hPa Este 4mph /  6.5km/h 8mph /  12.9km/h 39.6% 0in /  0.0mm
13:09 76.3 °F /  24.6 °C 49.8 °F /  9.9 °C 30in /  1016.4hPa ENE 3.9mph /  6.2km/h 7mph /  11.3km/h 39.6% 0in /  0.0mm
13:14 76.5 °F /  24.7 °C 49.6 °F /  9.8 °C 30in /  1016.4hPa NE 3.6mph /  5.8km/h 8.5mph /  13.7km/h 38.9% 0in /  0.0mm
13:19 76.5 °F /  24.7 °C 49.1 °F /  9.5 °C 30in /  1016.4hPa NE 4mph /  6.4km/h 9mph /  14.5km/h 38% 0in /  0.0mm
13:24 76.8 °F /  24.9 °C 49.1 °F /  9.5 °C 30in /  1016.2hPa NE 4.7mph /  7.6km/h 9.2mph /  14.8km/h 37.6% 0in /  0.0mm
13:29 77.2 °F /  25.1 °C 46.9 °F /  8.3 °C 30in /  1016.2hPa ESE 4.7mph /  7.6km/h 9.2mph /  14.8km/h 34.6% 0in /  0.0mm
13:34 77.4 °F /  25.2 °C 48.4 °F /  9.1 °C 30in /  1016.2hPa NNE 4.7mph /  7.6km/h 9mph /  14.5km/h 36% 0in /  0.0mm
13:39 77.9 °F /  25.5 °C 47.7 °F /  8.7 °C 30in /  1016.0hPa NE 4.1mph /  6.6km/h 6.9mph /  11.1km/h 34.5% 0in /  0.0mm
13:44 78.3 °F /  25.7 °C 44.4 °F /  6.9 °C 30in /  1016.0hPa ENE 3.1mph /  5km/h 10.4mph /  16.7km/h 30.2% 0in /  0.0mm
13:49 78.4 °F /  25.8 °C 43.9 °F /  6.6 °C 30in /  1016.0hPa ENE 3.9mph /  6.3km/h 12.7mph /  20.4km/h 29.4% 0in /  0.0mm
13:54 78.8 °F /  26 °C 43.9 °F /  6.6 °C 30in /  1015.9hPa ENE 5.4mph /  8.7km/h 13mph /  20.9km/h 29.1% 0in /  0.0mm
13:59 79.2 °F /  26.2 °C 43.9 °F /  6.6 °C 30in /  1015.9hPa ESE 5.4mph /  8.7km/h 13mph /  20.9km/h 28.7% 0in /  0.0mm
14:04 79.5 °F /  26.4 °C 43.9 °F /  6.6 °C 30in /  1015.9hPa ESE 5.4mph /  8.7km/h 13mph /  20.9km/h 28.4% 0in /  0.0mm
14:09 79.9 °F /  26.6 °C 43.9 °F /  6.6 °C 30in /  1015.8hPa SE 5.6mph /  9km/h 12mph /  19.3km/h 28% 0in /  0.0mm
14:14 79.7 °F /  26.5 °C 43.7 °F /  6.5 °C 30in /  1015.8hPa ESE 5.9mph /  9.5km/h 15.2mph /  24.5km/h 28% 0in /  0.0mm
14:19 79.5 °F /  26.4 °C 44.2 °F /  6.8 °C 30in /  1015.8hPa Este 6.9mph /  11.1km/h 15mph /  24.1km/h 28.7% 0in /  0.0mm
14:24 79.3 °F /  26.3 °C 43.9 °F /  6.6 °C 30in /  1015.6hPa ESE 8.5mph /  13.7km/h 15.2mph /  24.5km/h 28.5% 0in /  0.0mm
14:29 79.3 °F /  26.3 °C 44.1 °F /  6.7 °C 30in /  1015.6hPa ESE 8.8mph /  14.1km/h 15mph /  24.1km/h 28.7% 0in /  0.0mm
14:34 79.5 °F /  26.4 °C 44.6 °F /  7 °C 30in /  1015.6hPa Este 9.2mph /  14.8km/h 14mph /  22.5km/h 29% 0in /  0.0mm
14:39 80.1 °F /  26.7 °C 45 °F /  7.2 °C 30in /  1015.6hPa SE 8.3mph /  13.4km/h 14mph /  22.5km/h 29% 0in /  0.0mm
14:44 80.2 °F /  26.8 °C 45.7 °F /  7.6 °C 30in /  1015.6hPa ESE 6.9mph /  11.1km/h 15.2mph /  24.5km/h 29.5% 0in /  0.0mm
14:49 80.2 °F /  26.8 °C 45.7 °F /  7.6 °C 30in /  1015.6hPa SE 7.8mph /  12.5km/h 16.1mph /  25.9km/h 29.6% 0in /  0.0mm
14:54 80.2 °F /  26.8 °C 46.6 °F /  8.1 °C 30in /  1015.4hPa SE 9.2mph /  14.8km/h 16mph /  25.7km/h 30.7% 0in /  0.0mm
14:59 80.2 °F /  26.8 °C 48.4 °F /  9.1 °C 30in /  1015.4hPa SE 9mph /  14.5km/h 15.2mph /  24.5km/h 32.8% 0in /  0.0mm
15:04 80.2 °F /  26.8 °C 49.3 °F /  9.6 °C 30in /  1015.4hPa ESE 8.7mph /  14km/h 18.5mph /  29.8km/h 34.1% 0in /  0.0mm
15:09 80.2 °F /  26.8 °C 48.9 °F /  9.4 °C 30in /  1015.4hPa ESE 8.3mph /  13.4km/h 19mph /  30.6km/h 33.6% 0in /  0.0mm
15:14 80.2 °F /  26.8 °C 49.8 °F /  9.9 °C 30in /  1015.4hPa ESE 7.6mph /  12.2km/h 15mph /  24.1km/h 34.7% 0in /  0.0mm
15:19 80.1 °F /  26.7 °C 49.6 °F /  9.8 °C 30in /  1015.4hPa SE 7.8mph /  12.5km/h 15mph /  24.1km/h 34.5% 0in /  0.0mm
15:24 79.9 °F /  26.6 °C 49.6 °F /  9.8 °C 30in /  1015.4hPa SE 8.1mph /  13km/h 15mph /  24.1km/h 34.6% 0in /  0.0mm
15:29 80.1 °F /  26.7 °C 50.7 °F /  10.4 °C 30in /  1015.4hPa SE 7.6mph /  12.3km/h 18.4mph /  29.6km/h 35.9% 0in /  0.0mm
15:34 80.4 °F /  26.9 °C 50.9 °F /  10.5 °C 30in /  1015.4hPa SE 6.9mph /  11.1km/h 18mph /  29km/h 35.8% 0in /  0.0mm
15:39 80.1 °F /  26.7 °C 50.5 °F /  10.3 °C 30in /  1015.3hPa ESE 7.7mph /  12.4km/h 16.3mph /  26.2km/h 35.9% 0in /  0.0mm
15:44 79.9 °F /  26.6 °C 50.9 °F /  10.5 °C 30in /  1015.3hPa ESE 9.2mph /  14.8km/h 16.3mph /  26.2km/h 36.5% 0in /  0.0mm
15:49 80.1 °F /  26.7 °C 50.7 °F /  10.4 °C 30in /  1015.3hPa ESE 9.6mph /  15.4km/h 17.3mph /  27.8km/h 36.2% 0in /  0.0mm
15:54 80.1 °F /  26.7 °C 51.1 °F /  10.6 °C 30in /  1015.2hPa SE 10.2mph /  16.4km/h 17mph /  27.4km/h 36.4% 0in /  0.0mm
15:59 80.2 °F /  26.8 °C 52.2 °F /  11.2 °C 30in /  1015.2hPa SE 10.1mph /  16.3km/h 18.4mph /  29.6km/h 37.8% 0in /  0.0mm
16:04 80.1 °F /  26.7 °C 52.2 °F /  11.2 °C 30in /  1015.2hPa ESE 10mph /  16.1km/h 18mph /  29km/h 38% 0in /  0.0mm
16:09 80.1 °F /  26.7 °C 52.5 °F /  11.4 °C 30in /  1015.1hPa SE 10mph /  16.1km/h 17.3mph /  27.8km/h 38.3% 0in /  0.0mm
16:14 80.1 °F /  26.7 °C 53.2 °F /  11.8 °C 30in /  1015.1hPa ESE 10mph /  16.1km/h 19.7mph /  31.7km/h 39.8% 0in /  0.0mm
16:19 79.9 °F /  26.6 °C 53.8 °F /  12.1 °C 30in /  1015.1hPa SE 10.4mph /  16.8km/h 20mph /  32.2km/h 40.7% 0in /  0.0mm
16:24 80.1 °F /  26.7 °C 54 °F /  12.2 °C 30in /  1015.1hPa ESE 11.2mph /  18km/h 16.1mph /  25.9km/h 40.6% 0in /  0.0mm
16:29 79.9 °F /  26.6 °C 53.6 °F /  12 °C 30in /  1015.1hPa ESE 11mph /  17.7km/h 20.8mph /  33.5km/h 40.3% 0in /  0.0mm
16:34 79.9 °F /  26.6 °C 53.4 °F /  11.9 °C 30in /  1015.1hPa SE 10.7mph /  17.2km/h 21mph /  33.8km/h 40.1% 0in /  0.0mm
16:39 79.3 °F /  26.3 °C 53.1 °F /  11.7 °C 30in /  1015.0hPa ESE 10.9mph /  17.6km/h 19mph /  30.6km/h 40.2% 0in /  0.0mm
16:44 79.3 °F /  26.3 °C 52.9 °F /  11.6 °C 30in /  1015.0hPa ESE 11.4mph /  18.4km/h 18.4mph /  29.6km/h 40% 0in /  0.0mm
16:49 79.7 °F /  26.5 °C 52.7 °F /  11.5 °C 30in /  1015.0hPa ESE 10.9mph /  17.6km/h 18mph /  29km/h 39.2% 0in /  0.0mm
16:54 79.9 °F /  26.6 °C 52.5 °F /  11.4 °C 30in /  1014.9hPa ESE 10.2mph /  16.4km/h 17.5mph /  28.2km/h 38.8% 0in /  0.0mm
16:59 79.3 °F /  26.3 °C 51.6 °F /  10.9 °C 30in /  1014.9hPa SE 11mph /  17.7km/h 23mph /  37km/h 38.1% 0in /  0.0mm
17:04 79.3 °F /  26.3 °C 51.4 °F /  10.8 °C 30in /  1015.0hPa SE 12.3mph /  19.8km/h 23mph /  37km/h 37.7% 0in /  0.0mm
17:09 79.5 °F /  26.4 °C 50.9 °F /  10.5 °C 30in /  1015.0hPa SE 11.9mph /  19.1km/h 20.8mph /  33.5km/h 36.9% 0in /  0.0mm
17:14 79.3 °F /  26.3 °C 50.2 °F /  10.1 °C 30in /  1015.0hPa SE 11.2mph /  18km/h 21.3mph /  34.3km/h 36.2% 0in /  0.0mm
17:19 79.2 °F /  26.2 °C 50 °F /  10 °C 30in /  1015.0hPa SE 11.7mph /  18.8km/h 23.5mph /  37.8km/h 36.1% 0in /  0.0mm
17:24 78.8 °F /  26 °C 50.4 °F /  10.2 °C 30in /  1015.0hPa ESE 12.5mph /  20.1km/h 23mph /  37km/h 37% 0in /  0.0mm
17:29 79 °F /  26.1 °C 50.4 °F /  10.2 °C 30in /  1015.0hPa SE 12.2mph /  19.7km/h 19mph /  30.6km/h 37% 0in /  0.0mm
17:34 79 °F /  26.1 °C 50.5 °F /  10.3 °C 30in /  1015.0hPa ESE 11.8mph /  19km/h 19mph /  30.6km/h 37% 0in /  0.0mm
17:39 78.8 °F /  26 °C 50.4 °F /  10.2 °C 30in /  1015.0hPa ESE 11.8mph /  19km/h 23mph /  37km/h 37% 0in /  0.0mm
17:44 78.6 °F /  25.9 °C 50.4 °F /  10.2 °C 30in /  1015.0hPa SE 11.8mph /  19km/h 23mph /  37km/h 37.2% 0in /  0.0mm
17:49 78.6 °F /  25.9 °C 50.4 °F /  10.2 °C 30in /  1015.1hPa SE 11.4mph /  18.3km/h 21.3mph /  34.3km/h 37.1% 0in /  0.0mm
17:54 78.6 °F /  25.9 °C 50.2 °F /  10.1 °C 30in /  1015.1hPa ESE 10.7mph /  17.2km/h 21.3mph /  34.3km/h 37.1% 0in /  0.0mm
17:59 78.4 °F /  25.8 °C 50.7 °F /  10.4 °C 30in /  1015.1hPa ESE 11.3mph /  18.2km/h 21mph /  33.8km/h 38% 0in /  0.0mm
18:04 78.4 °F /  25.8 °C 50.7 °F /  10.4 °C 30in /  1015.1hPa SE 12.3mph /  19.8km/h 18.4mph /  29.6km/h 38% 0in /  0.0mm
18:09 78.6 °F /  25.9 °C 51.3 °F /  10.7 °C 30in /  1015.0hPa ESE 11.4mph /  18.4km/h 18.5mph /  29.8km/h 38.7% 0in /  0.0mm
18:14 78.6 °F /  25.9 °C 51.6 °F /  10.9 °C 30in /  1015.0hPa ESE 10mph /  16.1km/h 19mph /  30.6km/h 39% 0in /  0.0mm
18:19 78.4 °F /  25.8 °C 51.4 °F /  10.8 °C 30in /  1015.1hPa ESE 10mph /  16.1km/h 18.4mph /  29.6km/h 39% 0in /  0.0mm
18:24 78.3 °F /  25.7 °C 51.3 °F /  10.7 °C 30in /  1015.1hPa ESE 10mph /  16.1km/h 18mph /  29km/h 39.1% 0in /  0.0mm
18:29 78.1 °F /  25.6 °C 51.1 °F /  10.6 °C 30in /  1015.1hPa ESE 10.5mph /  16.9km/h 18.4mph /  29.6km/h 39% 0in /  0.0mm
18:34 78.1 °F /  25.6 °C 51.1 °F /  10.6 °C 30in /  1015.1hPa SE 11.4mph /  18.4km/h 20.7mph /  33.3km/h 39% 0in /  0.0mm
18:39 78.1 °F /  25.6 °C 51.4 °F /  10.8 °C 30in /  1015.1hPa SE 11.4mph /  18.4km/h 21mph /  33.8km/h 39.6% 0in /  0.0mm
18:44 77.9 °F /  25.5 °C 51.6 °F /  10.9 °C 30in /  1015.1hPa ESE 11.4mph /  18.4km/h 19.6mph /  31.5km/h 40% 0in /  0.0mm
18:49 77.9 °F /  25.5 °C 51.6 °F /  10.9 °C 30in /  1015.1hPa ESE 11.4mph /  18.4km/h 20.7mph /  33.3km/h 40% 0in /  0.0mm
18:54 77.5 °F /  25.3 °C 51.6 °F /  10.9 °C 30in /  1015.0hPa ESE 11.4mph /  18.4km/h 21mph /  33.8km/h 40.5% 0in /  0.0mm
18:59 77.5 °F /  25.3 °C 52 °F /  11.1 °C 30in /  1015.0hPa SE 10.9mph /  17.6km/h 21.9mph /  35.2km/h 41% 0in /  0.0mm
19:04 77.5 °F /  25.3 °C 51.8 °F /  11 °C 30in /  1015.1hPa SE 10.2mph /  16.4km/h 22mph /  35.4km/h 40.6% 0in /  0.0mm
19:09 77.5 °F /  25.3 °C 51.8 °F /  11 °C 30in /  1015.1hPa SE 10.4mph /  16.7km/h 17.5mph /  28.2km/h 40.7% 0in /  0.0mm
19:14 77.4 °F /  25.2 °C 52.3 °F /  11.3 °C 30in /  1015.1hPa ESE 10.7mph /  17.2km/h 17mph /  27.4km/h 41.9% 0in /  0.0mm
19:19 77.2 °F /  25.1 °C 52.2 °F /  11.2 °C 30in /  1015.1hPa ESE 10.5mph /  16.9km/h 16.1mph /  25.9km/h 41.9% 0in /  0.0mm
19:24 77 °F /  25 °C 52.2 °F /  11.2 °C 30in /  1015.0hPa ESE 10.2mph /  16.4km/h 17.3mph /  27.8km/h 42.2% 0in /  0.0mm
19:29 76.8 °F /  24.9 °C 52.5 °F /  11.4 °C 30in /  1015.0hPa ESE 10.2mph /  16.4km/h 17.3mph /  27.8km/h 42.9% 0in /  0.0mm
19:34 76.8 °F /  24.9 °C 52.3 °F /  11.3 °C 30in /  1015.1hPa ESE 10.2mph /  16.4km/h 17mph /  27.4km/h 42.5% 0in /  0.0mm
19:39 76.8 °F /  24.9 °C 52.5 °F /  11.4 °C 30in /  1015.1hPa ESE 9.8mph /  15.8km/h 14mph /  22.5km/h 42.9% 0in /  0.0mm
19:44 76.6 °F /  24.8 °C 52.5 °F /  11.4 °C 30in /  1015.1hPa ESE 9.2mph /  14.8km/h 15mph /  24.1km/h 43% 0in /  0.0mm
19:49 76.6 °F /  24.8 °C 52.5 °F /  11.4 °C 30in /  1015.1hPa ESE 9mph /  14.5km/h 18.4mph /  29.6km/h 43% 0in /  0.0mm
19:54 76.5 °F /  24.7 °C 52.3 °F /  11.3 °C 30in /  1015.1hPa ESE 8.7mph /  14km/h 18mph /  29km/h 43% 0in /  0.0mm
19:59 76.3 °F /  24.6 °C 52.3 °F /  11.3 °C 30in /  1015.1hPa ESE 9.3mph /  14.9km/h 17.3mph /  27.8km/h 43.5% 0in /  0.0mm
20:04 75.9 °F /  24.4 °C 52.7 °F /  11.5 °C 30in /  1015.2hPa ESE 10mph /  16.1km/h 17mph /  27.4km/h 44.5% 0in /  0.0mm
20:09 75.7 °F /  24.3 °C 53.1 °F /  11.7 °C 30in /  1015.2hPa ESE 9.5mph /  15.3km/h 16.3mph /  26.2km/h 45.4% 0in /  0.0mm
20:14 75.4 °F /  24.1 °C 53.4 °F /  11.9 °C 30in /  1015.2hPa SE 8.7mph /  14km/h 16mph /  25.7km/h 46.4% 0in /  0.0mm
20:19 75.2 °F /  24 °C 53.8 °F /  12.1 °C 30in /  1015.3hPa ESE 8.3mph /  13.4km/h 14mph /  22.5km/h 47.4% 0in /  0.0mm
20:24 75 °F /  23.9 °C 54 °F /  12.2 °C 30in /  1015.3hPa ESE 7.6mph /  12.2km/h 14mph /  22.5km/h 48% 0in /  0.0mm
20:29 74.8 °F /  23.8 °C 54.1 °F /  12.3 °C 30in /  1015.3hPa ESE 7.5mph /  12.1km/h 15mph /  24.1km/h 48.3% 0in /  0.0mm
20:34 74.7 °F /  23.7 °C 54.3 °F /  12.4 °C 30in /  1015.3hPa ESE 7.4mph /  11.9km/h 15mph /  24.1km/h 49% 0in /  0.0mm
20:39 74.7 °F /  23.7 °C 54.1 °F /  12.3 °C 30in /  1015.3hPa SE 7mph /  11.2km/h 10mph /  16.1km/h 48.9% 0in /  0.0mm
20:44 74.5 °F /  23.6 °C 54.3 °F /  12.4 °C 30in /  1015.3hPa ESE 6.2mph /  10km/h 12.7mph /  20.4km/h 49.3% 0in /  0.0mm
20:49 74.1 °F /  23.4 °C 54.5 °F /  12.5 °C 30in /  1015.4hPa ESE 6.3mph /  10.1km/h 13mph /  20.9km/h 50.4% 0in /  0.0mm
20:54 73.9 °F /  23.3 °C 55.2 °F /  12.9 °C 30in /  1015.4hPa ESE 6.4mph /  10.3km/h 11.5mph /  18.5km/h 52% 0in /  0.0mm
20:59 73.4 °F /  23 °C 55.4 °F /  13 °C 30in /  1015.4hPa ESE 6.3mph /  10.2km/h 12mph /  19.3km/h 53.3% 0in /  0.0mm
21:04 73 °F /  22.8 °C 55.4 °F /  13 °C 30in /  1015.4hPa ESE 6.2mph /  10km/h 12mph /  19.3km/h 54% 0in /  0.0mm
21:09 72.9 °F /  22.7 °C 55.2 °F /  12.9 °C 30in /  1015.4hPa ESE 5.8mph /  9.3km/h 8mph /  12.9km/h 54% 0in /  0.0mm
21:14 72.7 °F /  22.6 °C 55 °F /  12.8 °C 30in /  1015.4hPa Este 5.2mph /  8.4km/h 6.2mph /  10km/h 54% 0in /  0.0mm
21:19 72.3 °F /  22.4 °C 54.9 °F /  12.7 °C 30in /  1015.5hPa Este 4.6mph /  7.4km/h 6.9mph /  11.1km/h 54% 0in /  0.0mm
21:24 72.3 °F /  22.4 °C 55 °F /  12.8 °C 30in /  1015.5hPa NNE 3.6mph /  5.8km/h 7mph /  11.3km/h 54.6% 0in /  0.0mm
21:29 72.1 °F /  22.3 °C 54.7 °F /  12.6 °C 30in /  1015.5hPa NNE 3.7mph /  6km/h 7.4mph /  11.9km/h 54.4% 0in /  0.0mm
21:34 71.8 °F /  22.1 °C 54.7 °F /  12.6 °C 30in /  1015.5hPa NE 4mph /  6.5km/h 8.1mph /  13km/h 55% 0in /  0.0mm
21:39 71.6 °F /  22 °C 54.5 °F /  12.5 °C 30in /  1015.5hPa NNE 4.3mph /  6.9km/h 8.1mph /  13km/h 55% 0in /  0.0mm
21:44 71.2 °F /  21.8 °C 54.5 °F /  12.5 °C 30in /  1015.5hPa NE 4.7mph /  7.6km/h 9.2mph /  14.8km/h 55.8% 0in /  0.0mm
21:49 70.5 °F /  21.4 °C 54.5 °F /  12.5 °C 30in /  1015.7hPa NE 5.3mph /  8.5km/h 10.4mph /  16.7km/h 56.6% 0in /  0.0mm
21:54 70 °F /  21.1 °C 54.5 °F /  12.5 °C 30in /  1015.7hPa NNE 6.2mph /  10km/h 10mph /  16.1km/h 58.1% 0in /  0.0mm
21:59 69.4 °F /  20.8 °C 54.7 °F /  12.6 °C 30in /  1015.7hPa NE 6.5mph /  10.4km/h 10.4mph /  16.7km/h 59.2% 0in /  0.0mm
22:04 69.3 °F /  20.7 °C 54.9 °F /  12.7 °C 30in /  1015.8hPa NE 6.9mph /  11.1km/h 11.5mph /  18.5km/h 60% 0in /  0.0mm
22:09 69.1 °F /  20.6 °C 54.9 °F /  12.7 °C 30in /  1015.8hPa NNE 6.7mph /  10.8km/h 12mph /  19.3km/h 60.5% 0in /  0.0mm
22:14 68.7 °F /  20.4 °C 54.5 °F /  12.5 °C 30in /  1015.8hPa NNE 6.4mph /  10.3km/h 12.7mph /  20.4km/h 60.6% 0in /  0.0mm
22:19 68.5 °F /  20.3 °C 54.3 °F /  12.4 °C 30in /  1016.0hPa NNE 6.4mph /  10.3km/h 13mph /  20.9km/h 60.8% 0in /  0.0mm
22:24 68.2 °F /  20.1 °C 54.9 °F /  12.7 °C 30in /  1016.0hPa NNE 6.4mph /  10.3km/h 11.5mph /  18.5km/h 62.2% 0in /  0.0mm
22:29 67.8 °F /  19.9 °C 54.9 °F /  12.7 °C 30in /  1016.0hPa NE 6.8mph /  10.9km/h 12mph /  19.3km/h 63.1% 0in /  0.0mm
22:34 67.6 °F /  19.8 °C 55.2 °F /  12.9 °C 30in /  1016.3hPa NNE 7.4mph /  11.9km/h 12.7mph /  20.4km/h 64.4% 0in /  0.0mm
22:39 67.5 °F /  19.7 °C 55.8 °F /  13.2 °C 30in /  1016.3hPa NNE 7.2mph /  11.6km/h 13mph /  20.9km/h 66.1% 0in /  0.0mm
22:44 67.3 °F /  19.6 °C 55.9 °F /  13.3 °C 30in /  1016.3hPa NE 6.9mph /  11.1km/h 10.4mph /  16.7km/h 67% 0in /  0.0mm
22:49 67.1 °F /  19.5 °C 56.3 °F /  13.5 °C 30in /  1016.4hPa NE 6.6mph /  10.7km/h 13mph /  20.9km/h 68.3% 0in /  0.0mm
22:54 66.7 °F /  19.3 °C 56.7 °F /  13.7 °C 30in /  1016.4hPa NE 6.2mph /  10km/h 13mph /  20.9km/h 69.7% 0in /  0.0mm
22:59 66.6 °F /  19.2 °C 56.8 °F /  13.8 °C 30in /  1016.4hPa NE 6.3mph /  10.1km/h 11mph /  17.7km/h 70.7% 0in /  0.0mm
23:04 66.6 °F /  19.2 °C 56.8 °F /  13.8 °C 30in /  1016.5hPa NE 6.4mph /  10.3km/h 10mph /  16.1km/h 71% 0in /  0.0mm
23:09 66.4 °F /  19.1 °C 56.7 °F /  13.7 °C 30in /  1016.5hPa NE 6.3mph /  10.2km/h 11.8mph /  19km/h 71% 0in /  0.0mm
23:14 66.4 °F /  19.1 °C 57 °F /  13.9 °C 30in /  1016.5hPa NE 6.2mph /  10km/h 12mph /  19.3km/h 72% 0in /  0.0mm
23:19 66.2 °F /  19 °C 57 °F /  13.9 °C 30in /  1016.7hPa NE 6.2mph /  10km/h 10.4mph /  16.7km/h 72.2% 0in /  0.0mm
23:24 66 °F /  18.9 °C 57.2 °F /  14 °C 30in /  1016.7hPa NE 6.2mph /  10km/h 10mph /  16.1km/h 73% 0in /  0.0mm
23:29 66 °F /  18.9 °C 57 °F /  13.9 °C 30in /  1016.7hPa NNE 5.9mph /  9.5km/h 9.2mph /  14.8km/h 73% 0in /  0.0mm
23:34 65.8 °F /  18.8 °C 57.2 °F /  14 °C 30in /  1016.7hPa NNE 5.4mph /  8.7km/h 9mph /  14.5km/h 73.7% 0in /  0.0mm
23:39 65.7 °F /  18.7 °C 57.2 °F /  14 °C 30in /  1016.7hPa NNE 5.4mph /  8.7km/h 10.2mph /  16.4km/h 74% 0in /  0.0mm
23:44 65.7 °F /  18.7 °C 57.4 °F /  14.1 °C 30in /  1016.7hPa NNE 5.4mph /  8.7km/h 10.4mph /  16.7km/h 74.7% 0in /  0.0mm
23:49 65.5 °F /  18.6 °C 57.4 °F /  14.1 °C 30in /  1016.7hPa NNE 5.6mph /  9km/h 10mph /  16.1km/h 75% 0in /  0.0mm
23:54 65.3 °F /  18.5 °C 57.4 °F /  14.1 °C 30in /  1016.7hPa NNE 5.9mph /  9.5km/h 9.2mph /  14.8km/h 75.7% 0in /  0.0mm
23:59 65.1 °F /  18.4 °C 57.4 °F /  14.1 °C 30in /  1016.7hPa NE 5.9mph /  9.5km/h 9.2mph /  14.8km/h 76% 0in /  0.0mm
Murcia-Puente Tocinos, España
Compliments of Weather Underground - 3 mb

La estación de MeteoMurcia.com, publica sus datos en los siguientes proyectos:

Weather Underground PWS IMURCIAP2 Meteoclimatic www.awekas.at

W3Counter
Web Analytics